sensor_id;sensor_type;location;lat;lon;timestamp;pressure;altitude;pressure_sealevel;temperature;humidity
29935;BME280;19905;53.370;-6.314;2023-05-27T00:00:53;102646.66;;;15.00;100.00
29935;BME280;19905;53.370;-6.314;2023-05-27T00:03:21;102641.72;;;14.94;100.00
29935;BME280;19905;53.370;-6.314;2023-05-27T00:05:50;102649.78;;;14.93;100.00
29935;BME280;19905;53.370;-6.314;2023-05-27T00:08:22;102656.25;;;14.89;100.00
29935;BME280;19905;53.370;-6.314;2023-05-27T00:10:50;102647.41;;;14.88;100.00
29935;BME280;19905;53.370;-6.314;2023-05-27T00:13:20;102636.97;;;14.99;100.00
29935;BME280;19905;53.370;-6.314;2023-05-27T00:15:50;102642.72;;;15.06;100.00
29935;BME280;19905;53.370;-6.314;2023-05-27T00:18:18;102631.72;;;15.12;100.00
29935;BME280;19905;53.370;-6.314;2023-05-27T00:20:47;102632.19;;;15.05;100.00
29935;BME280;19905;53.370;-6.314;2023-05-27T00:23:16;102633.16;;;15.04;100.00
29935;BME280;19905;53.370;-6.314;2023-05-27T00:25:47;102627.28;;;14.98;100.00
29935;BME280;19905;53.370;-6.314;2023-05-27T00:28:15;102636.41;;;14.94;100.00
29935;BME280;19905;53.370;-6.314;2023-05-27T00:30:45;102637.28;;;14.81;100.00
29935;BME280;19905;53.370;-6.314;2023-05-27T00:33:14;102643.09;;;14.73;100.00
29935;BME280;19905;53.370;-6.314;2023-05-27T00:35:43;102636.91;;;14.72;100.00
29935;BME280;19905;53.370;-6.314;2023-05-27T00:38:12;102630.81;;;14.85;100.00
29935;BME280;19905;53.370;-6.314;2023-05-27T00:40:41;102635.84;;;14.75;100.00
29935;BME280;19905;53.370;-6.314;2023-05-27T00:43:11;102631.19;;;14.79;100.00
29935;BME280;19905;53.370;-6.314;2023-05-27T00:45:40;102621.94;;;14.84;100.00
29935;BME280;19905;53.370;-6.314;2023-05-27T00:48:09;102622.25;;;14.80;100.00
29935;BME280;19905;53.370;-6.314;2023-05-27T00:50:38;102623.97;;;14.81;100.00
29935;BME280;19905;53.370;-6.314;2023-05-27T00:53:07;102614.78;;;14.72;100.00
29935;BME280;19905;53.370;-6.314;2023-05-27T00:55:36;102615.75;;;14.71;100.00
29935;BME280;19905;53.370;-6.314;2023-05-27T00:58:05;102619.56;;;14.53;100.00
29935;BME280;19905;53.370;-6.314;2023-05-27T01:00:37;102616.78;;;14.54;100.00
29935;BME280;19905;53.370;-6.314;2023-05-27T01:03:06;102617.47;;;14.58;100.00
29935;BME280;19905;53.370;-6.314;2023-05-27T01:05:35;102606.44;;;14.64;100.00
29935;BME280;19905;53.370;-6.314;2023-05-27T01:08:11;102600.63;;;14.71;100.00
29935;BME280;19905;53.370;-6.314;2023-05-27T01:10:46;102601.47;;;14.72;100.00
29935;BME280;19905;53.370;-6.314;2023-05-27T01:13:21;102605.47;;;14.65;100.00
29935;BME280;19905;53.370;-6.314;2023-05-27T01:15:55;102600.88;;;14.38;100.00
29935;BME280;19905;53.370;-6.314;2023-05-27T01:18:28;102600.81;;;14.40;100.00
29935;BME280;19905;53.370;-6.314;2023-05-27T01:21:05;102600.72;;;14.41;100.00
29935;BME280;19905;53.370;-6.314;2023-05-27T01:23:36;102596.47;;;14.53;100.00
29935;BME280;19905;53.370;-6.314;2023-05-27T01:26:06;102601.28;;;14.61;100.00
29935;BME280;19905;53.370;-6.314;2023-05-27T01:28:36;102594.63;;;14.68;100.00
29935;BME280;19905;53.370;-6.314;2023-05-27T01:31:10;102584.94;;;14.38;100.00
29935;BME280;19905;53.370;-6.314;2023-05-27T01:33:44;102580.81;;;14.48;100.00
29935;BME280;19905;53.370;-6.314;2023-05-27T01:36:19;102590.94;;;14.56;100.00
29935;BME280;19905;53.370;-6.314;2023-05-27T01:38:51;102585.31;;;14.61;100.00
29935;BME280;19905;53.370;-6.314;2023-05-27T01:41:23;102585.31;;;14.61;100.00
29935;BME280;19905;53.370;-6.314;2023-05-27T01:43:52;102582.38;;;14.37;100.00
29935;BME280;19905;53.370;-6.314;2023-05-27T01:46:22;102587.59;;;14.24;100.00
29935;BME280;19905;53.370;-6.314;2023-05-27T01:48:50;102589.91;;;14.44;100.00
29935;BME280;19905;53.370;-6.314;2023-05-27T01:51:19;102580.47;;;14.10;100.00
29935;BME280;19905;53.370;-6.314;2023-05-27T01:53:48;102596.91;;;13.58;100.00
29935;BME280;19905;53.370;-6.314;2023-05-27T01:56:18;102587.84;;;13.77;100.00
29935;BME280;19905;53.370;-6.314;2023-05-27T01:58:46;102579.06;;;14.05;100.00
29935;BME280;19905;53.370;-6.314;2023-05-27T02:01:15;102571.47;;;14.13;100.00
29935;BME280;19905;53.370;-6.314;2023-05-27T02:03:44;102566.72;;;14.18;100.00
29935;BME280;19905;53.370;-6.314;2023-05-27T02:06:14;102568.16;;;14.23;100.00
29935;BME280;19905;53.370;-6.314;2023-05-27T02:08:42;102562.25;;;14.18;100.00
29935;BME280;19905;53.370;-6.314;2023-05-27T02:11:10;102556.78;;;14.07;100.00
29935;BME280;19905;53.370;-6.314;2023-05-27T02:13:41;102559.16;;;13.97;100.00
29935;BME280;19905;53.370;-6.314;2023-05-27T02:16:09;102560.16;;;13.81;100.00
29935;BME280;19905;53.370;-6.314;2023-05-27T02:18:39;102559.72;;;13.88;100.00
29935;BME280;19905;53.370;-6.314;2023-05-27T02:21:08;102548.03;;;14.05;100.00
29935;BME280;19905;53.370;-6.314;2023-05-27T02:23:36;102542.63;;;14.07;100.00
29935;BME280;19905;53.370;-6.314;2023-05-27T02:26:05;102543.28;;;13.96;100.00
29935;BME280;19905;53.370;-6.314;2023-05-27T02:28:34;102551.78;;;13.58;100.00
29935;BME280;19905;53.370;-6.314;2023-05-27T02:31:04;102561.28;;;13.62;100.00
29935;BME280;19905;53.370;-6.314;2023-05-27T02:33:32;102556.50;;;13.53;100.00
29935;BME280;19905;53.370;-6.314;2023-05-27T02:36:01;102543.09;;;13.70;100.00
29935;BME280;19905;53.370;-6.314;2023-05-27T02:38:30;102538.53;;;13.87;100.00
29935;BME280;19905;53.370;-6.314;2023-05-27T02:40:58;102530.94;;;13.81;100.00
29935;BME280;19905;53.370;-6.314;2023-05-27T02:43:27;102519.19;;;13.85;100.00
29935;BME280;19905;53.370;-6.314;2023-05-27T02:45:56;102524.09;;;13.77;100.00
29935;BME280;19905;53.370;-6.314;2023-05-27T02:48:26;102523.97;;;13.50;100.00
29935;BME280;19905;53.370;-6.314;2023-05-27T02:50:55;102519.75;;;13.61;100.00
29935;BME280;19905;53.370;-6.314;2023-05-27T02:53:24;102514.78;;;13.69;100.00
29935;BME280;19905;53.370;-6.314;2023-05-27T02:55:53;102510.72;;;13.78;100.00
29935;BME280;19905;53.370;-6.314;2023-05-27T02:58:21;102516.56;;;13.55;100.00
29935;BME280;19905;53.370;-6.314;2023-05-27T03:00:51;102518.22;;;13.57;100.00
29935;BME280;19905;53.370;-6.314;2023-05-27T03:03:20;102510.53;;;13.67;100.00
29935;BME280;19905;53.370;-6.314;2023-05-27T03:05:50;102501.91;;;13.78;100.00
29935;BME280;19905;53.370;-6.314;2023-05-27T03:08:19;102496.03;;;13.87;100.00
29935;BME280;19905;53.370;-6.314;2023-05-27T03:10:48;102503.81;;;13.90;100.00
29935;BME280;19905;53.370;-6.314;2023-05-27T03:13:16;102503.03;;;13.88;100.00
29935;BME280;19905;53.370;-6.314;2023-05-27T03:15:45;102499.53;;;13.87;100.00
29935;BME280;19905;53.370;-6.314;2023-05-27T03:18:13;102497.44;;;13.78;100.00
29935;BME280;19905;53.370;-6.314;2023-05-27T03:20:42;102494.91;;;13.77;100.00
29935;BME280;19905;53.370;-6.314;2023-05-27T03:23:12;102493.19;;;13.76;100.00
29935;BME280;19905;53.370;-6.314;2023-05-27T03:25:41;102498.69;;;13.72;100.00
29935;BME280;19905;53.370;-6.314;2023-05-27T03:28:10;102483.69;;;13.71;100.00
29935;BME280;19905;53.370;-6.314;2023-05-27T03:30:39;102482.06;;;13.69;100.00
29935;BME280;19905;53.370;-6.314;2023-05-27T03:33:08;102481.03;;;13.71;100.00
29935;BME280;19905;53.370;-6.314;2023-05-27T03:35:36;102474.09;;;13.69;100.00
29935;BME280;19905;53.370;-6.314;2023-05-27T03:38:05;102464.34;;;13.69;100.00
29935;BME280;19905;53.370;-6.314;2023-05-27T03:40:35;102467.88;;;13.70;100.00
29935;BME280;19905;53.370;-6.314;2023-05-27T03:43:04;102474.03;;;13.56;100.00
29935;BME280;19905;53.370;-6.314;2023-05-27T03:45:32;102469.28;;;13.47;100.00
29935;BME280;19905;53.370;-6.314;2023-05-27T03:48:01;102478.84;;;13.50;100.00
29935;BME280;19905;53.370;-6.314;2023-05-27T03:50:31;102468.22;;;13.50;100.00
29935;BME280;19905;53.370;-6.314;2023-05-27T03:53:01;102468.50;;;13.45;100.00
29935;BME280;19905;53.370;-6.314;2023-05-27T03:55:29;102468.88;;;13.39;100.00
29935;BME280;19905;53.370;-6.314;2023-05-27T03:57:59;102463.63;;;13.37;100.00
29935;BME280;19905;53.370;-6.314;2023-05-27T04:00:28;102464.69;;;13.35;100.00
29935;BME280;19905;53.370;-6.314;2023-05-27T04:02:57;102464.41;;;13.39;100.00
29935;BME280;19905;53.370;-6.314;2023-05-27T04:05:26;102463.28;;;13.43;100.00
29935;BME280;19905;53.370;-6.314;2023-05-27T04:07:55;102457.97;;;13.43;100.00
29935;BME280;19905;53.370;-6.314;2023-05-27T04:10:24;102451.72;;;13.44;100.00
29935;BME280;19905;53.370;-6.314;2023-05-27T04:12:52;102443.66;;;13.46;100.00
29935;BME280;19905;53.370;-6.314;2023-05-27T04:15:22;102452.47;;;13.46;100.00
29935;BME280;19905;53.370;-6.314;2023-05-27T04:17:51;102452.28;;;13.50;100.00
29935;BME280;19905;53.370;-6.314;2023-05-27T04:20:20;102455.72;;;13.52;100.00
29935;BME280;19905;53.370;-6.314;2023-05-27T04:22:48;102460.06;;;13.38;100.00
29935;BME280;19905;53.370;-6.314;2023-05-27T04:25:17;102471.22;;;13.29;100.00
29935;BME280;19905;53.370;-6.314;2023-05-27T04:27:46;102466.00;;;13.28;100.00
29935;BME280;19905;53.370;-6.314;2023-05-27T04:30:15;102473.22;;;13.26;100.00
29935;BME280;19905;53.370;-6.314;2023-05-27T04:32:48;102467.47;;;13.17;100.00
29935;BME280;19905;53.370;-6.314;2023-05-27T04:35:16;102471.06;;;13.16;100.00
29935;BME280;19905;53.370;-6.314;2023-05-27T04:37:45;102467.91;;;13.10;100.00
29935;BME280;19905;53.370;-6.314;2023-05-27T04:40:16;102468.84;;;13.09;100.00
29935;BME280;19905;53.370;-6.314;2023-05-27T04:42:44;102468.00;;;13.08;100.00
29935;BME280;19905;53.370;-6.314;2023-05-27T04:45:15;102468.69;;;13.12;100.00
29935;BME280;19905;53.370;-6.314;2023-05-27T04:47:43;102471.78;;;13.04;100.00
29935;BME280;19905;53.370;-6.314;2023-05-27T04:50:15;102460.72;;;13.12;100.00
29935;BME280;19905;53.370;-6.314;2023-05-27T04:52:43;102462.75;;;13.22;100.00
29935;BME280;19905;53.370;-6.314;2023-05-27T04:55:12;102465.16;;;13.27;100.00
29935;BME280;19905;53.370;-6.314;2023-05-27T04:57:41;102456.16;;;13.30;100.00
29935;BME280;19905;53.370;-6.314;2023-05-27T05:00:12;102457.00;;;13.30;100.00
29935;BME280;19905;53.370;-6.314;2023-05-27T05:02:50;102461.25;;;13.33;100.00
29935;BME280;19905;53.370;-6.314;2023-05-27T05:05:30;102460.91;;;13.39;100.00
29935;BME280;19905;53.370;-6.314;2023-05-27T05:07:59;102451.81;;;13.43;100.00
29935;BME280;19905;53.370;-6.314;2023-05-27T05:10:28;102458.56;;;13.48;100.00
29935;BME280;19905;53.370;-6.314;2023-05-27T05:12:57;102458.56;;;13.48;100.00
29935;BME280;19905;53.370;-6.314;2023-05-27T05:15:27;102452.97;;;13.53;100.00
29935;BME280;19905;53.370;-6.314;2023-05-27T05:17:57;102451.06;;;13.55;100.00
29935;BME280;19905;53.370;-6.314;2023-05-27T05:20:28;102456.19;;;13.58;100.00
29935;BME280;19905;53.370;-6.314;2023-05-27T05:22:59;102456.56;;;13.66;100.00
29935;BME280;19905;53.370;-6.314;2023-05-27T05:25:27;102458.44;;;13.79;100.00
29935;BME280;19905;53.370;-6.314;2023-05-27T05:27:57;102440.91;;;13.90;100.00
29935;BME280;19905;53.370;-6.314;2023-05-27T05:30:25;102438.81;;;13.95;100.00
29935;BME280;19905;53.370;-6.314;2023-05-27T05:32:54;102447.06;;;13.91;100.00
29935;BME280;19905;53.370;-6.314;2023-05-27T05:35:23;102440.34;;;13.99;100.00
29935;BME280;19905;53.370;-6.314;2023-05-27T05:37:52;102436.72;;;14.01;100.00
29935;BME280;19905;53.370;-6.314;2023-05-27T05:40:22;102441.75;;;14.05;100.00
29935;BME280;19905;53.370;-6.314;2023-05-27T05:42:51;102448.28;;;14.14;100.00
29935;BME280;19905;53.370;-6.314;2023-05-27T05:45:20;102450.19;;;14.12;100.00
29935;BME280;19905;53.370;-6.314;2023-05-27T05:47:49;102451.41;;;14.06;100.00
29935;BME280;19905;53.370;-6.314;2023-05-27T05:50:18;102455.69;;;14.09;100.00
29935;BME280;19905;53.370;-6.314;2023-05-27T05:52:47;102458.25;;;14.10;100.00
29935;BME280;19905;53.370;-6.314;2023-05-27T05:55:15;102453.16;;;14.07;100.00
29935;BME280;19905;53.370;-6.314;2023-05-27T05:57:45;102448.09;;;14.17;100.00
29935;BME280;19905;53.370;-6.314;2023-05-27T06:00:15;102449.19;;;14.27;100.00
29935;BME280;19905;53.370;-6.314;2023-05-27T06:02:45;102446.13;;;14.33;100.00
29935;BME280;19905;53.370;-6.314;2023-05-27T06:05:14;102445.41;;;14.31;100.00
29935;BME280;19905;53.370;-6.314;2023-05-27T06:07:42;102449.09;;;14.29;100.00
29935;BME280;19905;53.370;-6.314;2023-05-27T06:10:11;102435.97;;;14.40;100.00
29935;BME280;19905;53.370;-6.314;2023-05-27T06:12:40;102442.16;;;14.40;100.00
29935;BME280;19905;53.370;-6.314;2023-05-27T06:15:10;102436.81;;;14.40;100.00
29935;BME280;19905;53.370;-6.314;2023-05-27T06:17:39;102441.84;;;14.45;100.00
29935;BME280;19905;53.370;-6.314;2023-05-27T06:20:08;102436.25;;;14.49;100.00
29935;BME280;19905;53.370;-6.314;2023-05-27T06:22:37;102432.63;;;14.51;100.00
29935;BME280;19905;53.370;-6.314;2023-05-27T06:25:06;102433.41;;;14.53;100.00
29935;BME280;19905;53.370;-6.314;2023-05-27T06:27:35;102427.13;;;14.54;100.00
29935;BME280;19905;53.370;-6.314;2023-05-27T06:30:05;102425.97;;;14.58;100.00
29935;BME280;19905;53.370;-6.314;2023-05-27T06:32:35;102427.69;;;14.59;100.00
29935;BME280;19905;53.370;-6.314;2023-05-27T06:35:05;102437.47;;;14.58;100.00
29935;BME280;19905;53.370;-6.314;2023-05-27T06:37:34;102440.00;;;14.60;100.00
29935;BME280;19905;53.370;-6.314;2023-05-27T06:40:03;102433.25;;;14.68;100.00
29935;BME280;19905;53.370;-6.314;2023-05-27T06:42:33;102433.13;;;14.70;100.00
29935;BME280;19905;53.370;-6.314;2023-05-27T06:45:01;102435.72;;;14.71;100.00
29935;BME280;19905;53.370;-6.314;2023-05-27T06:47:30;102430.06;;;14.76;100.00
29935;BME280;19905;53.370;-6.314;2023-05-27T06:50:00;102421.69;;;14.82;100.00
29935;BME280;19905;53.370;-6.314;2023-05-27T06:52:28;102416.25;;;14.84;100.00
29935;BME280;19905;53.370;-6.314;2023-05-27T06:54:57;102409.69;;;14.89;100.00
29935;BME280;19905;53.370;-6.314;2023-05-27T06:57:26;102405.28;;;14.88;100.00
29935;BME280;19905;53.370;-6.314;2023-05-27T06:59:55;102398.78;;;14.80;100.00
29935;BME280;19905;53.370;-6.314;2023-05-27T07:02:24;102404.31;;;14.77;100.00
29935;BME280;19905;53.370;-6.314;2023-05-27T07:04:53;102394.09;;;14.83;100.00
29935;BME280;19905;53.370;-6.314;2023-05-27T07:07:25;102396.03;;;14.81;100.00
29935;BME280;19905;53.370;-6.314;2023-05-27T07:09:53;102400.50;;;14.93;100.00
29935;BME280;19905;53.370;-6.314;2023-05-27T07:12:22;102393.72;;;15.02;100.00
29935;BME280;19905;53.370;-6.314;2023-05-27T07:14:51;102389.47;;;14.99;100.00
29935;BME280;19905;53.370;-6.314;2023-05-27T07:17:20;102391.06;;;15.02;100.00
29935;BME280;19905;53.370;-6.314;2023-05-27T07:19:48;102397.84;;;14.93;100.00
29935;BME280;19905;53.370;-6.314;2023-05-27T07:22:17;102393.63;;;15.04;100.00
29935;BME280;19905;53.370;-6.314;2023-05-27T07:24:47;102390.00;;;15.17;100.00
29935;BME280;19905;53.370;-6.314;2023-05-27T07:27:16;102392.88;;;15.27;100.00
29935;BME280;19905;53.370;-6.314;2023-05-27T07:29:45;102389.38;;;15.14;100.00
29935;BME280;19905;53.370;-6.314;2023-05-27T07:32:14;102389.06;;;15.18;100.00
29935;BME280;19905;53.370;-6.314;2023-05-27T07:34:42;102384.78;;;15.29;100.00
29935;BME280;19905;53.370;-6.314;2023-05-27T07:37:11;102388.41;;;15.40;100.00
29935;BME280;19905;53.370;-6.314;2023-05-27T07:39:40;102383.28;;;15.37;100.00
29935;BME280;19905;53.370;-6.314;2023-05-27T07:42:09;102384.25;;;15.36;100.00
29935;BME280;19905;53.370;-6.314;2023-05-27T07:44:38;102384.25;;;15.36;100.00
29935;BME280;19905;53.370;-6.314;2023-05-27T07:47:07;102382.84;;;15.43;100.00
29935;BME280;19905;53.370;-6.314;2023-05-27T07:49:36;102379.53;;;15.52;100.00
29935;BME280;19905;53.370;-6.314;2023-05-27T07:52:07;102378.16;;;15.60;100.00
29935;BME280;19905;53.370;-6.314;2023-05-27T07:54:36;102377.75;;;15.66;100.00
29935;BME280;19905;53.370;-6.314;2023-05-27T07:57:22;102376.69;;;15.68;100.00
29935;BME280;19905;53.370;-6.314;2023-05-27T07:59:51;102372.84;;;15.72;100.00
29935;BME280;19905;53.370;-6.314;2023-05-27T08:02:19;102380.09;;;15.70;100.00
29935;BME280;19905;53.370;-6.314;2023-05-27T08:04:49;102378.81;;;15.76;100.00
29935;BME280;19905;53.370;-6.314;2023-05-27T08:07:18;102377.81;;;15.90;100.00
29935;BME280;19905;53.370;-6.314;2023-05-27T08:09:46;102364.69;;;15.99;100.00
29935;BME280;19905;53.370;-6.314;2023-05-27T08:12:15;102357.41;;;16.01;100.00
29935;BME280;19905;53.370;-6.314;2023-05-27T08:14:45;102361.72;;;16.15;100.00
29935;BME280;19905;53.370;-6.314;2023-05-27T08:17:14;102357.41;;;16.25;100.00
29935;BME280;19905;53.370;-6.314;2023-05-27T08:19:42;102347.25;;;16.31;100.00
29935;BME280;19905;53.370;-6.314;2023-05-27T08:22:11;102355.66;;;16.37;100.00
29935;BME280;19905;53.370;-6.314;2023-05-27T08:24:40;102350.34;;;16.48;100.00
29935;BME280;19905;53.370;-6.314;2023-05-27T08:27:14;102342.06;;;16.64;100.00
29935;BME280;19905;53.370;-6.314;2023-05-27T08:29:44;102336.59;;;16.66;100.00
29935;BME280;19905;53.370;-6.314;2023-05-27T08:32:13;102339.59;;;16.61;100.00
29935;BME280;19905;53.370;-6.314;2023-05-27T08:34:42;102335.53;;;16.68;100.00
29935;BME280;19905;53.370;-6.314;2023-05-27T08:37:10;102332.66;;;16.83;100.00
29935;BME280;19905;53.370;-6.314;2023-05-27T08:39:39;102329.16;;;16.93;100.00
29935;BME280;19905;53.370;-6.314;2023-05-27T08:42:07;102328.84;;;17.09;100.00
29935;BME280;19905;53.370;-6.314;2023-05-27T08:44:37;102330.91;;;17.28;100.00
29935;BME280;19905;53.370;-6.314;2023-05-27T08:47:07;102328.34;;;17.38;100.00
29935;BME280;19905;53.370;-6.314;2023-05-27T08:49:36;102327.59;;;17.36;100.00
29935;BME280;19905;53.370;-6.314;2023-05-27T08:52:06;102331.88;;;17.38;100.00
29935;BME280;19905;53.370;-6.314;2023-05-27T08:54:36;102330.16;;;17.48;100.00
29935;BME280;19905;53.370;-6.314;2023-05-27T08:57:07;102324.81;;;17.60;100.00
29935;BME280;19905;53.370;-6.314;2023-05-27T08:59:39;102324.59;;;17.74;100.00
29935;BME280;19905;53.370;-6.314;2023-05-27T09:02:11;102326.75;;;17.69;100.00
29935;BME280;19905;53.370;-6.314;2023-05-27T09:04:40;102322.81;;;17.73;100.00
29935;BME280;19905;53.370;-6.314;2023-05-27T09:07:12;102320.41;;;17.81;100.00
29935;BME280;19905;53.370;-6.314;2023-05-27T09:09:40;102323.78;;;17.94;100.00
29935;BME280;19905;53.370;-6.314;2023-05-27T09:12:10;102321.34;;;17.91;100.00
29935;BME280;19905;53.370;-6.314;2023-05-27T09:14:39;102311.34;;;18.04;100.00
29935;BME280;19905;53.370;-6.314;2023-05-27T09:17:12;102311.97;;;18.08;100.00
29935;BME280;19905;53.370;-6.314;2023-05-27T09:19:40;102307.06;;;18.13;100.00
29935;BME280;19905;53.370;-6.314;2023-05-27T09:22:09;102313.41;;;18.12;100.00
29935;BME280;19905;53.370;-6.314;2023-05-27T09:24:46;102308.28;;;18.20;100.00
29935;BME280;19905;53.370;-6.314;2023-05-27T09:27:15;102308.97;;;18.22;100.00
29935;BME280;19905;53.370;-6.314;2023-05-27T09:29:46;102306.06;;;18.25;100.00
29935;BME280;19905;53.370;-6.314;2023-05-27T09:32:25;102309.78;;;18.34;100.00
29935;BME280;19905;53.370;-6.314;2023-05-27T09:34:54;102307.13;;;18.34;100.00
29935;BME280;19905;53.370;-6.314;2023-05-27T09:37:25;102305.81;;;18.49;100.00
29935;BME280;19905;53.370;-6.314;2023-05-27T09:39:59;102310.47;;;18.47;100.00
29935;BME280;19905;53.370;-6.314;2023-05-27T09:42:38;102309.38;;;18.71;100.00
29935;BME280;19905;53.370;-6.314;2023-05-27T09:45:08;102308.06;;;18.86;100.00
29935;BME280;19905;53.370;-6.314;2023-05-27T09:47:44;102308.09;;;18.96;100.00
29935;BME280;19905;53.370;-6.314;2023-05-27T09:50:20;102299.16;;;19.07;100.00
29935;BME280;19905;53.370;-6.314;2023-05-27T09:52:49;102291.81;;;19.09;100.00
29935;BME280;19905;53.370;-6.314;2023-05-27T09:55:23;102290.75;;;19.21;100.00
29935;BME280;19905;53.370;-6.314;2023-05-27T09:57:52;102296.78;;;19.53;100.00
29935;BME280;19905;53.370;-6.314;2023-05-27T10:00:21;102296.00;;;19.63;100.00
29935;BME280;19905;53.370;-6.314;2023-05-27T10:02:54;102296.56;;;19.66;100.00
29935;BME280;19905;53.370;-6.314;2023-05-27T10:05:27;102297.88;;;19.82;100.00
29935;BME280;19905;53.370;-6.314;2023-05-27T10:07:57;102296.03;;;19.82;100.00
29935;BME280;19905;53.370;-6.314;2023-05-27T10:10:44;102290.13;;;19.98;100.00
29935;BME280;19905;53.370;-6.314;2023-05-27T10:13:19;102288.44;;;20.26;100.00
29935;BME280;19905;53.370;-6.314;2023-05-27T10:15:57;102288.44;;;20.55;100.00
29935;BME280;19905;53.370;-6.314;2023-05-27T10:18:28;102288.38;;;20.74;100.00
29935;BME280;19905;53.370;-6.314;2023-05-27T10:20:59;102280.19;;;20.76;100.00
29935;BME280;19905;53.370;-6.314;2023-05-27T10:23:29;102274.88;;;21.03;100.00
29935;BME280;19905;53.370;-6.314;2023-05-27T10:26:07;102280.31;;;21.21;100.00
29935;BME280;19905;53.370;-6.314;2023-05-27T10:28:38;102275.59;;;21.33;100.00
29935;BME280;19905;53.370;-6.314;2023-05-27T10:31:10;102276.16;;;20.99;100.00
29935;BME280;19905;53.370;-6.314;2023-05-27T10:33:43;102283.34;;;20.52;100.00
29935;BME280;19905;53.370;-6.314;2023-05-27T10:36:14;102284.88;;;20.16;100.00
29935;BME280;19905;53.370;-6.314;2023-05-27T10:38:55;102283.19;;;19.95;100.00
29935;BME280;19905;53.370;-6.314;2023-05-27T10:41:27;102283.28;;;19.65;100.00
29935;BME280;19905;53.370;-6.314;2023-05-27T10:43:56;102275.44;;;19.42;100.00
29935;BME280;19905;53.370;-6.314;2023-05-27T10:46:25;102271.44;;;19.67;100.00
29935;BME280;19905;53.370;-6.314;2023-05-27T10:48:55;102272.50;;;19.45;100.00
29935;BME280;19905;53.370;-6.314;2023-05-27T10:51:31;102272.63;;;19.44;100.00
29935;BME280;19905;53.370;-6.314;2023-05-27T10:54:02;102274.13;;;19.27;100.00
29935;BME280;19905;53.370;-6.314;2023-05-27T10:56:53;102269.78;;;19.36;100.00
29935;BME280;19905;53.370;-6.314;2023-05-27T10:59:33;102268.28;;;19.43;100.00
29935;BME280;19905;53.370;-6.314;2023-05-27T11:02:08;102263.31;;;19.38;100.00
29935;BME280;19905;53.370;-6.314;2023-05-27T11:04:39;102263.78;;;19.53;100.00
29935;BME280;19905;53.370;-6.314;2023-05-27T11:07:08;102259.69;;;19.59;100.00
29935;BME280;19905;53.370;-6.314;2023-05-27T11:09:50;102256.91;;;19.60;100.00
29935;BME280;19905;53.370;-6.314;2023-05-27T11:12:22;102253.69;;;19.86;100.00
29935;BME280;19905;53.370;-6.314;2023-05-27T11:14:55;102259.03;;;20.15;100.00
29935;BME280;19905;53.370;-6.314;2023-05-27T11:17:28;102250.84;;;20.36;100.00
29935;BME280;19905;53.370;-6.314;2023-05-27T11:19:58;102243.06;;;20.52;100.00
29935;BME280;19905;53.370;-6.314;2023-05-27T11:22:29;102246.34;;;20.26;100.00
29935;BME280;19905;53.370;-6.314;2023-05-27T11:25:00;102245.78;;;20.03;100.00
29935;BME280;19905;53.370;-6.314;2023-05-27T11:27:34;102229.34;;;20.55;100.00
29935;BME280;19905;53.370;-6.314;2023-05-27T11:30:08;102230.78;;;20.49;100.00
29935;BME280;19905;53.370;-6.314;2023-05-27T11:32:40;102226.13;;;20.89;100.00
29935;BME280;19905;53.370;-6.314;2023-05-27T11:35:18;102221.56;;;21.36;100.00
29935;BME280;19905;53.370;-6.314;2023-05-27T11:37:50;102218.84;;;22.07;100.00
29935;BME280;19905;53.370;-6.314;2023-05-27T11:40:21;102219.13;;;22.40;100.00
29935;BME280;19905;53.370;-6.314;2023-05-27T11:43:16;102220.28;;;21.30;100.00
29935;BME280;19905;53.370;-6.314;2023-05-27T11:46:02;102221.47;;;21.18;100.00
29935;BME280;19905;53.370;-6.314;2023-05-27T11:48:33;102220.78;;;20.79;100.00
29935;BME280;19905;53.370;-6.314;2023-05-27T11:51:05;102219.47;;;20.55;100.00
29935;BME280;19905;53.370;-6.314;2023-05-27T11:53:33;102222.84;;;20.38;100.00
29935;BME280;19905;53.370;-6.314;2023-05-27T11:56:09;102216.38;;;20.50;100.00
29935;BME280;19905;53.370;-6.314;2023-05-27T11:58:39;102219.81;;;20.14;100.00
29935;BME280;19905;53.370;-6.314;2023-05-27T12:01:13;102226.59;;;19.89;100.00
29935;BME280;19905;53.370;-6.314;2023-05-27T12:03:48;102216.84;;;19.97;100.00
29935;BME280;19905;53.370;-6.314;2023-05-27T12:06:24;102216.25;;;20.23;100.00
29935;BME280;19905;53.370;-6.314;2023-05-27T12:08:55;102207.38;;;20.22;100.00
29935;BME280;19905;53.370;-6.314;2023-05-27T12:11:32;102207.34;;;20.32;100.00
29935;BME280;19905;53.370;-6.314;2023-05-27T12:14:24;102199.00;;;20.45;100.00
29935;BME280;19905;53.370;-6.314;2023-05-27T12:16:53;102190.34;;;20.61;100.00
29935;BME280;19905;53.370;-6.314;2023-05-27T12:19:22;102184.53;;;21.20;100.00
29935;BME280;19905;53.370;-6.314;2023-05-27T12:21:59;102192.28;;;21.51;100.00
29935;BME280;19905;53.370;-6.314;2023-05-27T12:24:27;102179.88;;;20.95;100.00
29935;BME280;19905;53.370;-6.314;2023-05-27T12:27:02;102170.22;;;21.83;100.00
29935;BME280;19905;53.370;-6.314;2023-05-27T12:29:32;102173.22;;;21.98;100.00
29935;BME280;19905;53.370;-6.314;2023-05-27T12:32:04;102173.78;;;21.48;100.00
29935;BME280;19905;53.370;-6.314;2023-05-27T12:34:39;102172.16;;;21.55;100.00
29935;BME280;19905;53.370;-6.314;2023-05-27T12:37:10;102164.56;;;21.86;100.00
29935;BME280;19905;53.370;-6.314;2023-05-27T12:39:45;102155.31;;;22.32;100.00
29935;BME280;19905;53.370;-6.314;2023-05-27T12:42:15;102155.03;;;22.44;100.00
29935;BME280;19905;53.370;-6.314;2023-05-27T12:44:45;102153.59;;;22.57;100.00
29935;BME280;19905;53.370;-6.314;2023-05-27T12:47:17;102147.00;;;22.52;100.00